KPTS/PTS METAR and TAF weather

Enter ICAO airport designator
Station Type Date Time Source
KPTS METAR 2022/01/29 12:35 UTC NOAA

KPTS 291235Z AUTO 19006KT 10SM CLR M05/M09 A3020 RMK AO2 T10471086


Station Type Date Time Source
KPTS Decoded METAR 2022/01/29 12:35 UTC NOAA

Station name not available
Jan 29, 2022 - 07:35 AM EST / 2022.01.29 1235 UTC
Wind: from the S (190 degrees) at 7 MPH (6 KT):0
Visibility: 10 mile(s):0
Sky conditions: clear
Temperature: 23.5 F (-4.7 C)
Windchill: 15 F (-9 C):1
Dew Point: 16.5 F (-8.6 C)
Relative Humidity: 74%
Pressure (altimeter): 30.2 in. Hg (1022 hPa)
ob: KPTS 291235Z AUTO 19006KT 10SM CLR M05/M09 A3020 RMK AO2 T10471086
cycle: 12

Station Type Date Time Source
KPTS TAF UTC NOAA

Error!

Example: see airport list